< < Back
Terminal Aerodrome Forecast


Current Version              Previous Versions:   1  2  3  4  5  6  7  8  9  

Terminal Aerodrome Forecast

647
FTUS42 KILM 300539
TAFFLO
TAF
KFLO 300539Z 3006/3106 04003KT P6SM SKC
     FM301000 02005KT 6SM BR SCT008
     FM301330 08008KT P6SM SCT020 SCT180
     FM310100 00000KT P6SM BKN200=

Latest METAR

520
SAUS70 KWBC 301300 RRG
MTRFLO
METAR KFLO 301253Z 05009KT 10SM FEW095 27/22 A3009 RMK AO2 SLP186
T02670222


USA.gov is the U.S. government's official web portal to all federal, state and local government web resources and services.